This is the latest recevied weather packets stored in our database for station/object DM8MH-13. If no packets are shown the sender has not sent any weather packets the latest 10 day(s).
| Time | Temp. | Humidity | Pressure | Rain* | Wind** | Luminosity | Snow |
|---|---|---|---|---|---|---|---|
| 1777662071 | 18.33° C | 49% | 1024.6 hPa | 0 mm | - | 0 W/m² | - |
| 1777661472 | 18.33° C | 49% | 1024.5 hPa | 0 mm | - | 0 W/m² | - |
| 1777660875 | 18.33° C | 48% | 1024.4 hPa | 0 mm | - | 0 W/m² | - |
| 1777660271 | 18.33° C | 48% | 1024.4 hPa | 0 mm | - | 7 W/m² | - |
| 1777659675 | 18.89° C | 48% | 1024.4 hPa | 0 mm | - | 12 W/m² | - |
| 1777659071 | 19.44° C | 47% | 1024.3 hPa | 0 mm | - | 22 W/m² | - |
| 1777658471 | 19.44° C | 46% | 1024.3 hPa | 0 mm | - | 34 W/m² | - |
| 1777657872 | 20° C | 45% | 1024.3 hPa | 0 mm | - | 52 W/m² | - |
| 1777657271 | 20.56° C | 45% | 1024.4 hPa | 0 mm | - | 77 W/m² | - |
| 1777656671 | 20.56° C | 45% | 1024.4 hPa | 0 mm | - | 100 W/m² | - |
| 1777656073 | 20.56° C | 44% | 1024.4 hPa | 0 mm | - | 125 W/m² | - |
| 1777655472 | 21.11° C | 43% | 1024.5 hPa | 0 mm | - | 161 W/m² | - |
| 1777654871 | 21.11° C | 43% | 1024.6 hPa | 0 mm | - | 189 W/m² | - |
| 1777654272 | 21.67° C | 42% | 1024.7 hPa | 0 mm | - | 217 W/m² | - |
| 1777653671 | 21.67° C | 41% | 1024.9 hPa | 0 mm | - | 254 W/m² | - |
| 1777653072 | 21.67° C | 40% | 1024.9 hPa | 0 mm | - | 278 W/m² | - |
| 1777652472 | 22.22° C | 39% | 1025 hPa | 0 mm | - | 298 W/m² | - |
| 1777651871 | 21.67° C | 39% | 1025 hPa | 0 mm | - | 330 W/m² | - |
| 1777651271 | 22.22° C | 40% | 1025 hPa | 0 mm | - | 352 W/m² | - |
| 1777650671 | 22.22° C | 39% | 1025.3 hPa | 0 mm | - | 376 W/m² | - |
| 1777650073 | 22.78° C | 37% | 1025.4 hPa | 0 mm | - | 407 W/m² | - |
| 1777649471 | 22.78° C | 37% | 1025.5 hPa | 0 mm | - | 426 W/m² | - |
| 1777648872 | 22.78° C | 37% | 1025.6 hPa | 0 mm | - | 449 W/m² | - |
| 1777648271 | 22.78° C | 38% | 1025.7 hPa | 0 mm | - | 479 W/m² | - |
| 1777647671 | 22.22° C | 38% | 1025.8 hPa | 0 mm | - | 500 W/m² | - |
* Rain latest hour (hover to see other rain measurements)
** Current wind speed in m/s (hover to see current wind gust speed)